Time;durP1;ratioP1;P1;durP2;ratioP2;P2;SDS_P1;SDS_P2;PMS_P1;PMS_P2;Temp;Humidity;BMP_temperature;BMP_pressure;BME280_temperature;BME280_humidity;BME280_pressure;Samples;Min_cycle;Max_cycle;Signal;HPM_P1;HPM_P2
2021/08/19 00:02:21;;;;;;;4.43;2.30;;;18.00;88.70;;;;;;5019420;28;20214;-88
2021/08/19 00:04:46;;;;;;;2.50;2.30;;;18.00;88.90;;;;;;5021333;28;20215;-88
2021/08/19 00:07:12;;;;;;;2.93;2.53;;;18.00;88.90;;;;;;5020200;28;20211;-87
2021/08/19 00:09:38;;;;;;;2.60;2.40;;;18.00;88.40;;;;;;5021135;28;20278;-87
2021/08/19 00:12:08;;;;;;;3.40;2.80;;;18.10;88.20;;;;;;5019968;28;20218;-87
2021/08/19 00:14:37;;;;;;;2.67;2.47;;;18.10;88.60;;;;;;5020887;28;20715;-87
2021/08/19 00:17:08;;;;;;;2.90;2.70;;;18.00;88.00;;;;;;5011910;28;20198;-88
2021/08/19 00:19:34;;;;;;;3.23;2.60;;;17.90;88.40;;;;;;5029120;28;20698;-88
2021/08/19 00:22:04;;;;;;;2.80;2.60;;;18.00;88.50;;;;;;5034243;28;20838;-88
2021/08/19 00:24:30;;;;;;;2.70;2.50;;;18.00;87.70;;;;;;5017594;28;20209;-88
2021/08/19 00:26:56;;;;;;;2.97;2.75;;;18.00;88.00;;;;;;5023832;28;20213;-88
2021/08/19 00:29:22;;;;;;;3.23;2.60;;;18.00;88.10;;;;;;5018147;28;20192;-88
2021/08/19 00:31:49;;;;;;;2.83;2.47;;;18.00;88.20;;;;;;5008195;28;20270;-88
2021/08/19 00:34:15;;;;;;;2.70;2.50;;;18.10;88.00;;;;;;5014033;28;20200;-87
2021/08/19 00:36:41;;;;;;;3.27;2.63;;;18.20;87.50;;;;;;5016736;28;20235;-88
2021/08/19 00:39:06;;;;;;;3.03;2.72;;;18.10;87.50;;;;;;5019450;28;20195;-88
2021/08/19 00:41:36;;;;;;;3.17;2.97;;;18.10;87.20;;;;;;5020352;28;20235;-88
2021/08/19 00:44:03;;;;;;;3.20;2.87;;;18.10;87.20;;;;;;5019612;28;20213;-88
2021/08/19 00:46:32;;;;;;;3.53;3.03;;;18.00;88.00;;;;;;5019047;28;20196;-88
2021/08/19 00:49:07;;;;;;;3.73;2.80;;;17.90;88.40;;;;;;5018990;28;20185;-88
2021/08/19 00:52:02;;;;;;;3.27;2.97;;;17.80;88.70;;;;;;5016883;28;20222;-88
2021/08/19 00:54:28;;;;;;;2.83;2.57;;;17.80;89.20;;;;;;5011713;28;20245;-88
2021/08/19 00:56:58;;;;;;;3.10;2.80;;;17.90;89.70;;;;;;5017395;28;20206;-88
2021/08/19 00:59:25;;;;;;;3.10;2.90;;;18.00;88.60;;;;;;5016137;28;20786;-88
2021/08/19 01:01:55;;;;;;;3.20;3.00;;;17.90;88.50;;;;;;5016121;28;20221;-88
2021/08/19 01:04:21;;;;;;;2.90;2.70;;;17.90;88.20;;;;;;5032839;28;20275;-88
2021/08/19 01:06:47;;;;;;;3.30;2.93;;;17.90;88.40;;;;;;5020057;28;20193;-88
2021/08/19 01:09:13;;;;;;;3.77;3.00;;;17.80;89.10;;;;;;5019319;28;20233;-88
2021/08/19 01:11:40;;;;;;;3.97;2.97;;;17.90;88.70;;;;;;5018800;28;20243;-88
2021/08/19 01:14:11;;;;;;;3.30;3.00;;;17.80;88.60;;;;;;5022827;28;20215;-88
2021/08/19 01:16:36;;;;;;;2.97;2.77;;;17.80;89.30;;;;;;5038864;28;20209;-88
2021/08/19 01:19:02;;;;;;;2.90;2.70;;;17.80;89.20;;;;;;5021088;28;20201;-88
2021/08/19 01:21:28;;;;;;;4.30;2.87;;;17.90;88.90;;;;;;5021791;28;20230;-88
2021/08/19 01:23:53;;;;;;;3.30;2.93;;;17.70;89.00;;;;;;5023925;28;20229;-88
2021/08/19 01:26:21;;;;;;;3.00;2.70;;;17.70;89.40;;;;;;5021591;28;20203;-87
2021/08/19 01:28:48;;;;;;;2.97;2.77;;;17.70;89.50;;;;;;5022731;28;20242;-87
2021/08/19 01:31:19;;;;;;;3.17;2.90;;;17.80;88.70;;;;;;5024058;28;20241;-88
2021/08/19 01:33:46;;;;;;;4.10;2.80;;;17.90;88.90;;;;;;5019752;28;20207;-88
2021/08/19 01:36:14;;;;;;;3.17;2.90;;;17.90;88.10;;;;;;5023384;28;20202;-88
2021/08/19 01:38:41;;;;;;;3.57;3.13;;;17.90;88.40;;;;;;5021481;28;20247;-88
2021/08/19 01:41:07;;;;;;;4.27;3.13;;;17.90;88.50;;;;;;5021297;28;20222;-88
2021/08/19 01:43:34;;;;;;;3.50;2.80;;;17.90;88.10;;;;;;5020771;28;20230;-88
2021/08/19 01:46:15;;;;;;;3.43;3.13;;;17.80;88.50;;;;;;5020303;28;20200;-88
2021/08/19 01:48:49;;;;;;;3.43;3.13;;;17.70;88.70;;;;;;5021471;28;20224;-88
2021/08/19 01:51:16;;;;;;;3.50;2.77;;;17.70;88.60;;;;;;5019096;28;20220;-87
2021/08/19 01:53:42;;;;;;;3.40;3.10;;;17.70;88.60;;;;;;5021657;28;20202;-88
2021/08/19 01:56:08;;;;;;;4.43;3.60;;;17.70;88.80;;;;;;5021664;28;20197;-88
2021/08/19 01:58:34;;;;;;;4.83;3.40;;;17.80;88.40;;;;;;5021287;28;20209;-88
2021/08/19 02:00:59;;;;;;;3.40;3.10;;;17.80;88.30;;;;;;5020333;28;20283;-88
2021/08/19 02:03:25;;;;;;;3.47;3.17;;;17.70;88.80;;;;;;5022166;28;20564;-88
2021/08/19 02:05:52;;;;;;;3.87;3.00;;;17.80;88.60;;;;;;5019764;28;20194;-88
2021/08/19 02:08:17;;;;;;;3.63;3.33;;;17.70;88.80;;;;;;5019598;28;20193;-88
2021/08/19 02:10:44;;;;;;;3.97;3.27;;;17.80;88.40;;;;;;5019756;28;20205;-88
2021/08/19 02:13:11;;;;;;;4.70;3.10;;;17.70;88.50;;;;;;5036363;28;20669;-88
2021/08/19 02:15:37;;;;;;;3.87;3.43;;;17.80;88.90;;;;;;5021609;28;20203;-88
2021/08/19 02:18:03;;;;;;;3.60;3.30;;;17.70;88.30;;;;;;5021242;28;20191;-88
2021/08/19 02:20:29;;;;;;;3.80;3.47;;;17.70;89.00;;;;;;5019293;28;20198;-87
2021/08/19 02:23:04;;;;;;;3.50;3.20;;;17.60;88.90;;;;;;5019916;28;20192;-88
2021/08/19 02:25:30;;;;;;;4.63;3.53;;;17.60;89.00;;;;;;5021144;28;20232;-88
2021/08/19 02:27:57;;;;;;;3.67;3.27;;;17.60;89.10;;;;;;5015981;28;20224;-88
2021/08/19 02:30:22;;;;;;;3.77;3.47;;;17.80;88.20;;;;;;5012902;28;20226;-88
2021/08/19 02:32:58;;;;;;;3.80;3.23;;;17.80;87.90;;;;;;5020975;28;20219;-88
2021/08/19 02:35:27;;;;;;;3.67;3.20;;;17.80;88.20;;;;;;5021207;28;20218;-88
2021/08/19 02:37:54;;;;;;;3.67;3.33;;;17.90;87.40;;;;;;5019186;28;20282;-88
2021/08/19 02:40:22;;;;;;;3.83;3.30;;;17.80;87.90;;;;;;5021042;28;20222;-88
2021/08/19 02:42:48;;;;;;;4.10;3.80;;;17.80;87.90;;;;;;5019374;28;20712;-88
2021/08/19 02:45:14;;;;;;;3.65;3.42;;;17.80;87.70;;;;;;5019773;28;20255;-88
2021/08/19 02:47:40;;;;;;;3.35;3.05;;;17.90;87.50;;;;;;5021409;28;20185;-88
2021/08/19 02:50:06;;;;;;;3.53;3.22;;;17.90;87.30;;;;;;5034700;28;20563;-88
2021/08/19 02:52:31;;;;;;;4.57;3.73;;;17.80;87.70;;;;;;5020248;28;20228;-88
2021/08/19 02:54:57;;;;;;;4.57;3.58;;;17.70;88.00;;;;;;5025624;28;20270;-88
2021/08/19 02:57:23;;;;;;;4.28;3.88;;;17.70;88.00;;;;;;5019073;28;20201;-88
2021/08/19 02:59:49;;;;;;;4.20;3.40;;;17.70;87.50;;;;;;5017778;28;20204;-88
2021/08/19 03:02:14;;;;;;;4.37;3.37;;;17.80;87.60;;;;;;5021404;28;20742;-88
2021/08/19 03:04:40;;;;;;;3.80;3.50;;;17.70;87.50;;;;;;5020009;28;20230;-88
2021/08/19 03:07:11;;;;;;;3.70;3.37;;;17.80;87.40;;;;;;5019361;28;20275;-88
2021/08/19 03:09:37;;;;;;;3.93;3.57;;;17.80;87.20;;;;;;5020333;28;20179;-88
2021/08/19 03:12:04;;;;;;;4.87;3.10;;;17.80;87.90;;;;;;5019727;28;20202;-86
2021/08/19 03:14:30;;;;;;;3.70;3.40;;;17.70;88.20;;;;;;5019333;28;20629;-86
2021/08/19 03:16:56;;;;;;;3.60;3.30;;;17.80;88.00;;;;;;5019713;28;20195;-89
2021/08/19 03:19:22;;;;;;;3.50;3.20;;;17.70;87.80;;;;;;5018681;28;20202;-87
2021/08/19 03:21:48;;;;;;;4.10;3.00;;;17.80;88.00;;;;;;5018290;28;20231;-86
2021/08/19 03:24:14;;;;;;;4.67;3.60;;;17.70;88.40;;;;;;5018527;28;20216;-87
2021/08/19 03:26:40;;;;;;;4.70;3.87;;;17.70;88.00;;;;;;5019157;28;20195;-88
2021/08/19 03:29:06;;;;;;;4.27;3.83;;;17.70;88.30;;;;;;5017237;28;20200;-88
2021/08/19 03:31:32;;;;;;;6.70;3.90;;;17.60;88.60;;;;;;5019532;28;20211;-87
2021/08/19 03:33:58;;;;;;;4.10;3.70;;;17.70;88.60;;;;;;5019321;28;20553;-87
2021/08/19 03:36:25;;;;;;;4.57;3.80;;;17.70;88.30;;;;;;5019816;28;20290;-86
2021/08/19 03:38:51;;;;;;;4.97;3.90;;;17.60;88.70;;;;;;5019856;28;20236;-86
2021/08/19 03:41:17;;;;;;;3.47;3.17;;;17.50;89.30;;;;;;5017957;28;20232;-87
2021/08/19 03:43:46;;;;;;;4.63;3.47;;;17.60;88.90;;;;;;5019560;28;20238;-86
2021/08/19 03:46:13;;;;;;;3.67;3.37;;;17.60;89.30;;;;;;5037238;28;20182;-86
2021/08/19 03:48:39;;;;;;;5.20;3.47;;;17.60;89.10;;;;;;5020798;28;20235;-87
2021/08/19 03:51:05;;;;;;;3.73;3.10;;;17.50;89.50;;;;;;5018253;28;20214;-89
2021/08/19 03:53:31;;;;;;;3.13;2.93;;;17.60;89.00;;;;;;5023427;28;20214;-86
2021/08/19 03:55:57;;;;;;;3.40;3.10;;;17.60;89.00;;;;;;5019038;28;20194;-86
2021/08/19 03:58:23;;;;;;;3.30;2.90;;;17.70;89.00;;;;;;5018731;28;20216;-87
2021/08/19 04:00:50;;;;;;;3.00;2.67;;;17.80;88.20;;;;;;5033364;28;20196;-89
2021/08/19 04:03:16;;;;;;;3.10;2.90;;;17.70;89.50;;;;;;5018157;28;20195;-86
2021/08/19 04:05:43;;;;;;;4.70;2.80;;;17.80;88.60;;;;;;5020496;28;20258;-86
2021/08/19 04:08:09;;;;;;;3.20;2.80;;;17.80;88.40;;;;;;5018164;28;20203;-88
2021/08/19 04:10:35;;;;;;;3.63;3.20;;;17.80;88.80;;;;;;5024932;28;20241;-88
2021/08/19 04:13:00;;;;;;;3.20;2.90;;;17.80;88.70;;;;;;5022238;28;20196;-86
2021/08/19 04:15:26;;;;;;;3.10;2.80;;;17.80;88.50;;;;;;5018531;28;20741;-88
2021/08/19 04:17:52;;;;;;;2.90;2.70;;;17.70;88.80;;;;;;5016772;28;20198;-88
2021/08/19 04:20:19;;;;;;;5.43;2.92;;;17.70;89.30;;;;;;5018918;28;20687;-88
2021/08/19 04:22:45;;;;;;;3.42;3.13;;;17.80;89.00;;;;;;5017709;28;20238;-88
2021/08/19 04:25:11;;;;;;;3.22;2.45;;;17.70;89.60;;;;;;5019415;28;20228;-88
2021/08/19 04:27:37;;;;;;;2.83;2.63;;;17.80;88.80;;;;;;5019708;28;20260;-88
2021/08/19 04:30:04;;;;;;;2.90;2.70;;;17.90;89.00;;;;;;5018346;28;20219;-88
2021/08/19 04:32:30;;;;;;;3.53;2.80;;;17.70;89.70;;;;;;5018732;28;20242;-88
2021/08/19 04:34:56;;;;;;;3.00;2.80;;;17.80;89.20;;;;;;5019107;28;20207;-86
2021/08/19 04:37:22;;;;;;;2.90;2.70;;;17.80;89.00;;;;;;5017400;28;20634;-87
2021/08/19 04:39:48;;;;;;;5.73;2.97;;;17.80;89.50;;;;;;5020266;28;20223;-86
2021/08/19 04:42:15;;;;;;;4.00;3.17;;;17.80;89.30;;;;;;5020660;28;20232;-87
2021/08/19 04:44:41;;;;;;;2.87;2.63;;;17.70;90.10;;;;;;5016246;28;20707;-86
2021/08/19 04:47:07;;;;;;;3.10;2.80;;;17.80;89.70;;;;;;5009809;28;20184;-87
2021/08/19 04:49:33;;;;;;;3.77;3.27;;;17.80;89.50;;;;;;5023704;28;20251;-87
2021/08/19 04:51:58;;;;;;;4.50;3.40;;;17.80;89.60;;;;;;5024184;28;20213;-87
2021/08/19 04:54:24;;;;;;;3.67;3.00;;;17.80;89.60;;;;;;5024074;28;20669;-86
2021/08/19 04:56:50;;;;;;;4.93;3.20;;;17.70;90.60;;;;;;5006868;28;20202;-88
2021/08/19 04:59:15;;;;;;;5.33;3.17;;;17.80;90.20;;;;;;5023619;28;20203;-86
2021/08/19 05:01:42;;;;;;;3.40;3.10;;;17.70;90.20;;;;;;5023568;28;20222;-86
2021/08/19 05:04:08;;;;;;;4.63;3.20;;;17.80;89.90;;;;;;5024301;28;20207;-86
2021/08/19 05:06:34;;;;;;;3.70;3.05;;;17.90;89.40;;;;;;5024304;28;20207;-87
2021/08/19 05:09:01;;;;;;;3.07;2.87;;;17.90;89.40;;;;;;5024474;28;20237;-86
2021/08/19 05:11:27;;;;;;;3.50;3.20;;;17.90;89.20;;;;;;5022943;28;20213;-87
2021/08/19 05:13:53;;;;;;;3.83;3.00;;;18.00;88.90;;;;;;5023178;28;20260;-87
2021/08/19 05:16:19;;;;;;;3.17;2.87;;;18.00;88.40;;;;;;5022979;28;20278;-87
2021/08/19 05:18:45;;;;;;;3.07;2.83;;;18.00;88.80;;;;;;5026220;28;20200;-87
2021/08/19 05:21:12;;;;;;;4.40;3.03;;;17.90;89.20;;;;;;5023665;28;20290;-87
2021/08/19 05:23:39;;;;;;;5.38;3.03;;;18.00;89.00;;;;;;5024818;28;20213;-87
2021/08/19 05:26:05;;;;;;;3.20;3.00;;;18.00;89.30;;;;;;5024020;28;20185;-87
2021/08/19 05:28:31;;;;;;;3.90;3.27;;;17.90;89.70;;;;;;5023215;28;20204;-88
2021/08/19 05:30:56;;;;;;;3.22;3.00;;;17.90;90.00;;;;;;5021781;28;20223;-86
2021/08/19 05:33:22;;;;;;;3.30;2.97;;;18.00;89.90;;;;;;5024495;28;20207;-87
2021/08/19 05:35:48;;;;;;;3.05;2.75;;;18.10;89.30;;;;;;5022476;28;20255;-87
2021/08/19 05:38:13;;;;;;;3.40;2.60;;;18.10;89.70;;;;;;5022760;28;20204;-87
2021/08/19 05:40:39;;;;;;;3.00;2.80;;;18.00;89.40;;;;;;5024052;28;20184;-85
2021/08/19 05:43:06;;;;;;;3.03;2.75;;;18.00;90.40;;;;;;5023155;28;20182;-87
2021/08/19 05:45:35;;;;;;;3.20;2.90;;;17.90;90.60;;;;;;5023940;28;20235;-87
2021/08/19 05:48:03;;;;;;;2.57;2.37;;;17.90;90.90;;;;;;5021562;28;20206;-87
2021/08/19 05:50:30;;;;;;;3.03;2.83;;;17.80;90.90;;;;;;5022419;28;20212;-87
2021/08/19 05:52:56;;;;;;;5.10;2.97;;;18.00;90.50;;;;;;5021640;28;20529;-87
2021/08/19 05:55:22;;;;;;;3.13;2.25;;;18.10;90.60;;;;;;5022922;28;20201;-87
2021/08/19 05:57:50;;;;;;;3.38;3.10;;;18.10;90.20;;;;;;5023239;28;20197;-86
2021/08/19 06:00:20;;;;;;;5.38;2.85;;;18.00;90.80;;;;;;5022124;28;20215;-87
2021/08/19 06:02:46;;;;;;;3.27;2.63;;;18.00;89.90;;;;;;5021847;28;20204;-86
2021/08/19 06:05:11;;;;;;;3.33;2.50;;;18.10;90.00;;;;;;5012682;28;20208;-87
2021/08/19 06:07:37;;;;;;;3.95;2.90;;;18.00;90.80;;;;;;5013668;28;20234;-87
2021/08/19 06:10:04;;;;;;;3.05;2.60;;;18.10;90.60;;;;;;5018264;28;20239;-87
2021/08/19 06:12:30;;;;;;;2.78;2.53;;;18.00;91.20;;;;;;5020997;28;20197;-86
2021/08/19 06:14:56;;;;;;;3.50;2.80;;;18.10;90.90;;;;;;5019396;28;20204;-87
2021/08/19 06:17:21;;;;;;;3.53;2.60;;;18.10;90.90;;;;;;5019604;28;20204;-87
2021/08/19 06:19:47;;;;;;;3.58;2.92;;;18.10;91.10;;;;;;5019992;28;20200;-86
2021/08/19 06:22:13;;;;;;;3.08;2.80;;;18.10;90.80;;;;;;5020168;28;20232;-88
2021/08/19 06:24:39;;;;;;;3.30;3.00;;;18.30;90.00;;;;;;5018710;28;20204;-87
2021/08/19 06:27:05;;;;;;;3.30;3.00;;;18.50;89.30;;;;;;5021212;28;20209;-87
2021/08/19 06:29:30;;;;;;;3.65;3.08;;;18.50;89.00;;;;;;5019129;28;20535;-88
2021/08/19 06:31:56;;;;;;;3.72;2.90;;;18.40;89.80;;;;;;5017609;28;20300;-87
2021/08/19 06:34:22;;;;;;;3.28;2.97;;;18.30;90.10;;;;;;5001285;28;20687;-87
2021/08/19 06:36:47;;;;;;;6.05;3.30;;;18.20;91.60;;;;;;5016421;28;20186;-86
2021/08/19 06:39:13;;;;;;;3.22;2.95;;;18.30;90.50;;;;;;5017034;28;20215;-87
2021/08/19 06:41:39;;;;;;;3.67;3.38;;;18.20;90.70;;;;;;5018214;28;20252;-86
2021/08/19 06:44:06;;;;;;;4.80;3.88;;;18.40;90.10;;;;;;5020539;28;20201;-87
2021/08/19 06:46:31;;;;;;;4.18;3.47;;;18.40;90.20;;;;;;5019354;28;20193;-87
2021/08/19 06:48:57;;;;;;;4.25;3.58;;;18.40;89.90;;;;;;5018863;28;20251;-86
2021/08/19 06:51:23;;;;;;;4.13;3.83;;;18.30;90.50;;;;;;5018127;28;20212;-87
2021/08/19 06:53:48;;;;;;;4.18;3.88;;;18.30;90.30;;;;;;5017024;28;20244;-86
2021/08/19 06:56:14;;;;;;;4.63;3.90;;;18.20;90.60;;;;;;5019917;28;20460;-86
2021/08/19 06:58:40;;;;;;;4.18;3.78;;;18.30;90.10;;;;;;5019318;28;20178;-86
2021/08/19 07:01:05;;;;;;;5.78;4.03;;;18.30;91.00;;;;;;5018342;28;20221;-87
2021/08/19 07:03:31;;;;;;;4.20;3.83;;;18.30;91.70;;;;;;5018574;28;20522;-87
2021/08/19 07:05:57;;;;;;;5.30;3.38;;;18.40;91.20;;;;;;5019501;28;20200;-85
2021/08/19 07:08:23;;;;;;;5.13;3.70;;;18.40;89.20;;;;;;5017923;28;20197;-85
2021/08/19 07:10:48;;;;;;;4.03;3.72;;;18.30;90.10;;;;;;5017474;28;20189;-86
2021/08/19 07:13:14;;;;;;;4.38;4.00;;;18.30;91.00;;;;;;5020348;28;20275;-86
2021/08/19 07:15:45;;;;;;;6.43;3.72;;;18.20;90.90;;;;;;5017966;28;20198;-86
2021/08/19 07:18:11;;;;;;;4.45;3.80;;;18.20;92.20;;;;;;5017901;28;20283;-85
2021/08/19 07:20:37;;;;;;;4.63;3.90;;;18.20;91.30;;;;;;5034091;28;20206;-86
2021/08/19 07:23:03;;;;;;;6.07;3.90;;;18.20;91.80;;;;;;5017239;28;20197;-85
2021/08/19 07:25:28;;;;;;;5.22;4.10;;;18.20;90.90;;;;;;5018893;28;20212;-85
2021/08/19 07:27:54;;;;;;;3.45;3.25;;;18.40;91.10;;;;;;5017890;28;20204;-86
2021/08/19 07:30:20;;;;;;;6.22;3.63;;;18.40;91.60;;;;;;5018111;28;20644;-86
2021/08/19 07:32:46;;;;;;;3.42;3.10;;;18.40;90.80;;;;;;5018016;28;20209;-86
2021/08/19 07:35:12;;;;;;;3.78;3.45;;;18.40;91.20;;;;;;5018900;28;20184;-85
2021/08/19 07:37:48;;;;;;;5.20;3.95;;;18.50;90.90;;;;;;5017958;28;20191;-85
2021/08/19 07:40:20;;;;;;;3.70;3.40;;;18.60;88.90;;;;;;5018607;28;20643;-86
2021/08/19 07:42:46;;;;;;;4.78;3.65;;;18.60;88.00;;;;;;5019384;28;20219;-86
2021/08/19 07:45:14;;;;;;;3.38;3.08;;;18.80;87.60;;;;;;5017366;28;20770;-85
2021/08/19 07:47:40;;;;;;;4.07;3.55;;;18.80;88.10;;;;;;5020096;28;20191;-85
2021/08/19 07:50:08;;;;;;;4.93;3.85;;;18.60;88.20;;;;;;5022100;28;20596;-85
2021/08/19 07:52:36;;;;;;;3.90;3.60;;;18.60;88.90;;;;;;5026991;28;20493;-86
2021/08/19 07:55:03;;;;;;;3.45;3.13;;;18.70;88.10;;;;;;5028648;28;20212;-86
2021/08/19 07:57:43;;;;;;;3.88;3.38;;;18.90;88.30;;;;;;5021778;28;20197;-86
2021/08/19 08:00:10;;;;;;;3.75;3.13;;;19.00;87.50;;;;;;5012642;28;20203;-86
2021/08/19 08:02:37;;;;;;;3.47;3.10;;;19.10;86.50;;;;;;5035650;28;20303;-86
2021/08/19 08:05:04;;;;;;;3.58;3.28;;;19.10;87.70;;;;;;5043505;28;20286;-86
2021/08/19 08:07:30;;;;;;;5.38;3.55;;;19.20;86.70;;;;;;5021448;28;20196;-86
2021/08/19 08:09:55;;;;;;;3.50;3.20;;;19.30;84.70;;;;;;5018458;28;20593;-85
2021/08/19 08:12:21;;;;;;;3.65;3.28;;;19.30;84.30;;;;;;5020475;28;20731;-86
2021/08/19 08:14:47;;;;;;;3.20;3.00;;;19.40;84.20;;;;;;5020227;28;20230;-86
2021/08/19 08:17:12;;;;;;;3.20;2.95;;;19.50;83.10;;;;;;5018835;28;20208;-85
2021/08/19 08:19:38;;;;;;;4.03;2.97;;;19.60;82.20;;;;;;5021738;28;20574;-86
2021/08/19 08:22:04;;;;;;;3.08;2.88;;;19.70;83.20;;;;;;5017697;28;20216;-85
2021/08/19 08:24:30;;;;;;;3.22;2.92;;;19.60;81.50;;;;;;5022023;28;20214;-86
2021/08/19 08:26:56;;;;;;;3.20;3.00;;;19.50;83.10;;;;;;5016568;28;20257;-86
2021/08/19 08:29:22;;;;;;;6.20;3.55;;;19.60;81.60;;;;;;5015404;28;20275;-86
2021/08/19 08:31:49;;;;;;;3.72;3.35;;;19.50;81.60;;;;;;5033150;28;20225;-85
2021/08/19 08:34:14;;;;;;;4.75;3.85;;;19.30;83.50;;;;;;5019223;28;20202;-85
2021/08/19 08:36:42;;;;;;;4.75;3.70;;;19.30;82.10;;;;;;5017974;28;20199;-86
2021/08/19 08:39:10;;;;;;;3.88;3.58;;;19.30;82.70;;;;;;5016204;28;20204;-86
2021/08/19 08:41:39;;;;;;;4.65;3.80;;;19.50;83.30;;;;;;5018081;28;20225;-85
2021/08/19 08:44:05;;;;;;;5.95;3.60;;;19.40;84.20;;;;;;5012099;28;20209;-85
2021/08/19 08:46:33;;;;;;;4.47;4.07;;;19.50;84.00;;;;;;5016875;28;20275;-86
2021/08/19 08:49:00;;;;;;;4.57;4.10;;;19.90;80.50;;;;;;5016704;28;20184;-86
2021/08/19 08:51:26;;;;;;;4.28;3.80;;;19.90;79.30;;;;;;5016966;28;20205;-85
2021/08/19 08:53:52;;;;;;;4.22;3.50;;;20.00;80.10;;;;;;5016863;28;20200;-86
2021/08/19 08:56:18;;;;;;;3.40;3.13;;;20.00;80.50;;;;;;5019660;28;20271;-86
2021/08/19 08:58:43;;;;;;;3.53;3.22;;;19.90;80.50;;;;;;5020764;28;20565;-85
2021/08/19 09:01:09;;;;;;;3.38;3.08;;;19.80;80.30;;;;;;5018208;28;20232;-85
2021/08/19 09:03:35;;;;;;;4.90;3.40;;;19.90;81.80;;;;;;5021619;28;20211;-86
2021/08/19 09:06:02;;;;;;;4.43;3.58;;;20.10;81.00;;;;;;5018900;28;20325;-86
2021/08/19 09:08:29;;;;;;;3.65;3.35;;;20.30;79.20;;;;;;5033578;28;20224;-86
2021/08/19 09:10:59;;;;;;;3.80;3.35;;;20.40;79.00;;;;;;5019431;28;20206;-86
2021/08/19 09:13:30;;;;;;;3.75;3.40;;;20.30;78.50;;;;;;5019644;28;20204;-85
2021/08/19 09:16:16;;;;;;;4.00;3.00;;;20.50;78.20;;;;;;5018119;28;20212;-86
2021/08/19 09:18:42;;;;;;;3.53;3.10;;;20.60;78.90;;;;;;5035026;28;20249;-86
2021/08/19 09:21:25;;;;;;;3.60;3.30;;;20.90;77.70;;;;;;5015573;28;20244;-86
2021/08/19 09:24:14;;;;;;;3.30;3.03;;;20.90;74.90;;;;;;5019030;28;20700;-85
2021/08/19 09:26:47;;;;;;;3.83;3.33;;;20.80;76.30;;;;;;5018092;28;20190;-86
2021/08/19 09:29:26;;;;;;;4.22;3.13;;;20.80;77.00;;;;;;5018001;28;20189;-85
2021/08/19 09:31:55;;;;;;;3.22;3.03;;;20.80;76.10;;;;;;5011546;28;20763;-86
2021/08/19 09:34:23;;;;;;;4.03;3.65;;;20.60;76.70;;;;;;5033492;28;20193;-86
2021/08/19 09:37:02;;;;;;;4.50;3.05;;;20.60;76.90;;;;;;5024859;28;20193;-86
2021/08/19 09:39:37;;;;;;;3.75;3.45;;;20.80;77.20;;;;;;5023771;28;20249;-87
2021/08/19 09:42:03;;;;;;;5.22;3.63;;;20.90;75.70;;;;;;5021759;28;20226;-86
2021/08/19 09:44:33;;;;;;;5.18;3.55;;;21.00;77.10;;;;;;5022611;28;20273;-86
2021/08/19 09:46:59;;;;;;;4.07;3.67;;;21.00;76.70;;;;;;5021832;28;20208;-86
2021/08/19 09:49:30;;;;;;;3.60;3.15;;;21.20;75.30;;;;;;5022967;28;20186;-86
2021/08/19 09:52:10;;;;;;;4.40;3.63;;;21.10;75.90;;;;;;5022705;28;20228;-87
2021/08/19 09:54:40;;;;;;;4.47;3.38;;;21.10;75.50;;;;;;5024823;28;20671;-86
2021/08/19 09:57:07;;;;;;;5.65;3.65;;;21.20;76.10;;;;;;5024092;28;20671;-86
2021/08/19 09:59:36;;;;;;;3.58;3.28;;;21.30;75.90;;;;;;5022405;28;20246;-87
2021/08/19 10:02:03;;;;;;;4.82;3.72;;;21.20;76.60;;;;;;5022126;28;20736;-86
2021/08/19 10:04:29;;;;;;;3.80;3.35;;;21.30;76.70;;;;;;5021205;28;20575;-86
2021/08/19 10:06:56;;;;;;;3.75;3.45;;;21.20;75.00;;;;;;5021069;28;20188;-86
2021/08/19 10:09:22;;;;;;;4.45;3.45;;;21.20;75.50;;;;;;5021042;28;20196;-86
2021/08/19 10:11:50;;;;;;;4.15;3.75;;;21.50;75.10;;;;;;5023390;28;20234;-88
2021/08/19 10:14:21;;;;;;;4.60;3.50;;;21.40;73.50;;;;;;5020947;28;21252;-88
2021/08/19 10:16:48;;;;;;;3.90;3.50;;;21.40;74.30;;;;;;5017617;28;20672;-85
2021/08/19 10:19:31;;;;;;;3.78;3.47;;;21.40;75.20;;;;;;5020063;28;20205;-85
2021/08/19 10:22:11;;;;;;;3.50;3.20;;;21.60;74.40;;;;;;5030127;28;20217;-85
2021/08/19 10:24:40;;;;;;;5.05;4.00;;;22.00;72.00;;;;;;5020116;28;20684;-86
2021/08/19 10:27:06;;;;;;;5.45;3.80;;;22.00;71.40;;;;;;5018943;28;20185;-85
2021/08/19 10:29:53;;;;;;;3.88;3.58;;;22.20;71.60;;;;;;5018387;28;20221;-85
2021/08/19 10:32:35;;;;;;;4.22;2.92;;;22.20;69.50;;;;;;5019475;28;20216;-85
2021/08/19 10:35:09;;;;;;;3.35;2.80;;;22.10;68.90;;;;;;5019484;28;20226;-86
2021/08/19 10:37:47;;;;;;;3.20;2.90;;;21.90;69.00;;;;;;5021271;28;20248;-87
2021/08/19 10:42:58;;;;;;;3.30;3.10;;;22.70;69.60;;;;;;5021909;28;20368;-86
2021/08/19 10:45:27;;;;;;;3.38;3.17;;;22.90;69.00;;;;;;5018268;28;20217;-86
2021/08/19 10:48:08;;;;;;;3.47;3.05;;;22.90;67.20;;;;;;5021453;28;20208;-86
2021/08/19 10:50:41;;;;;;;3.72;3.42;;;22.60;69.00;;;;;;5034655;28;20196;-87
2021/08/19 10:53:14;;;;;;;3.50;3.20;;;22.60;67.90;;;;;;5022118;28;20201;-86
2021/08/19 10:55:52;;;;;;;3.88;3.38;;;23.00;67.70;;;;;;5015409;28;20197;-86
2021/08/19 10:58:36;;;;;;;3.95;3.20;;;22.80;68.80;;;;;;5019312;28;20189;-86
2021/08/19 11:01:13;;;;;;;3.30;3.00;;;22.60;69.40;;;;;;5019286;28;20216;-86
2021/08/19 11:03:40;;;;;;;2.78;2.58;;;22.60;68.20;;;;;;5017669;28;20665;-86
2021/08/19 11:06:08;;;;;;;3.13;2.70;;;22.60;65.40;;;;;;5020383;28;20194;-86
2021/08/19 11:08:53;;;;;;;2.75;2.60;;;22.60;65.70;;;;;;5019639;28;20225;-86
2021/08/19 11:11:34;;;;;;;3.78;2.72;;;22.40;67.00;;;;;;5016721;28;20212;-86
2021/08/19 11:14:21;;;;;;;3.83;3.05;;;22.50;66.00;;;;;;5018965;28;20192;-86
2021/08/19 11:16:56;;;;;;;3.28;2.97;;;22.50;65.80;;;;;;5020155;28;20196;-86
2021/08/19 11:19:29;;;;;;;3.20;2.88;;;22.70;66.00;;;;;;5018641;28;20192;-86
2021/08/19 11:22:03;;;;;;;3.22;3.00;;;22.70;66.30;;;;;;5016150;28;20312;-85
2021/08/19 11:24:39;;;;;;;3.67;3.38;;;22.70;67.60;;;;;;5018096;28;20205;-86
2021/08/19 11:27:09;;;;;;;4.13;3.60;;;22.80;67.80;;;;;;5019433;28;20185;-85
2021/08/19 11:29:42;;;;;;;4.25;3.53;;;22.80;68.00;;;;;;5020505;28;20192;-85
2021/08/19 11:32:13;;;;;;;4.03;3.70;;;22.90;68.60;;;;;;5019043;28;20205;-86
2021/08/19 11:34:49;;;;;;;3.75;3.40;;;23.00;68.60;;;;;;5036504;28;20231;-86
2021/08/19 11:37:31;;;;;;;4.22;3.78;;;23.00;69.80;;;;;;5023941;28;20268;-86
2021/08/19 11:39:59;;;;;;;3.30;3.00;;;22.90;69.30;;;;;;5025337;28;20252;-86
2021/08/19 11:42:32;;;;;;;2.40;2.20;;;22.90;66.40;;;;;;5025221;28;20507;-87
2021/08/19 11:45:34;;;;;;;2.50;2.30;;;23.00;65.60;;;;;;5021008;28;20235;-86
2021/08/19 11:48:02;;;;;;;2.13;1.98;;;23.20;64.10;;;;;;4985135;28;20288;-86
2021/08/19 11:50:27;;;;;;;1.90;1.67;;;23.30;64.30;;;;;;5015844;28;20267;-84
2021/08/19 11:53:01;;;;;;;1.90;1.80;;;23.20;62.50;;;;;;5020834;28;20213;-86
2021/08/19 11:55:36;;;;;;;1.90;1.80;;;23.50;62.20;;;;;;5033878;28;20216;-86
2021/08/19 11:58:24;;;;;;;2.53;1.90;;;23.70;62.50;;;;;;5020103;28;20185;-86
2021/08/19 12:01:05;;;;;;;2.10;2.00;;;23.60;62.60;;;;;;5020872;28;20224;-85
2021/08/19 12:03:42;;;;;;;2.50;2.30;;;23.80;60.20;;;;;;5018959;28;20189;-86
2021/08/19 12:06:10;;;;;;;2.20;2.10;;;23.90;61.20;;;;;;5021261;28;20249;-86
2021/08/19 12:08:46;;;;;;;2.72;2.50;;;24.20;60.20;;;;;;5017797;28;20193;-85
2021/08/19 12:11:16;;;;;;;2.53;2.33;;;24.40;59.30;;;;;;5018939;28;20263;-86
2021/08/19 12:13:43;;;;;;;2.13;2.03;;;24.60;59.00;;;;;;5018832;28;20189;-86
2021/08/19 12:16:10;;;;;;;2.03;1.92;;;24.10;58.10;;;;;;5018372;28;20188;-86
2021/08/19 12:18:36;;;;;;;3.67;2.40;;;24.00;58.10;;;;;;5021709;28;20244;-87
2021/08/19 12:21:19;;;;;;;2.28;2.10;;;24.60;57.90;;;;;;5017431;28;20205;-87
2021/08/19 12:23:47;;;;;;;2.47;2.10;;;25.30;56.60;;;;;;5018423;28;20202;-86
2021/08/19 12:26:16;;;;;;;2.30;2.10;;;25.70;56.30;;;;;;5036943;28;20209;-86
2021/08/19 12:28:56;;;;;;;2.67;2.47;;;25.80;54.20;;;;;;5018476;28;20247;-86
2021/08/19 12:31:22;;;;;;;2.38;2.17;;;26.20;55.10;;;;;;5035160;28;20224;-85
2021/08/19 12:34:01;;;;;;;2.20;2.10;;;26.40;52.90;;;;;;5029015;28;20190;-86
2021/08/19 12:36:31;;;;;;;2.67;2.47;;;25.90;52.10;;;;;;5012587;28;20197;-85
2021/08/19 12:39:23;;;;;;;2.55;2.35;;;25.90;52.50;;;;;;4997411;28;20196;-85
2021/08/19 12:41:51;;;;;;;2.70;2.50;;;25.40;54.20;;;;;;5013902;28;20221;-86
2021/08/19 12:44:19;;;;;;;2.45;2.20;;;25.40;55.70;;;;;;5013926;28;20210;-85
2021/08/19 12:46:49;;;;;;;2.30;2.20;;;24.90;53.40;;;;;;5013429;28;20328;-85
2021/08/19 12:49:23;;;;;;;2.38;2.17;;;24.40;57.20;;;;;;5013408;28;20679;-85
2021/08/19 12:52:08;;;;;;;2.63;2.42;;;24.10;58.70;;;;;;5030058;28;20221;-85
2021/08/19 12:54:34;;;;;;;2.60;2.25;;;24.40;58.00;;;;;;5010414;28;20208;-86
2021/08/19 12:57:00;;;;;;;2.33;2.22;;;24.60;57.60;;;;;;5012012;28;20658;-86
2021/08/19 12:59:26;;;;;;;4.50;2.38;;;24.30;58.70;;;;;;5012027;28;20197;-86